sensor_id;sensor_type;location;lat;lon;timestamp;P1;durP1;ratioP1;P2;durP2;ratioP2
62071;SDS011;48031;48.542;13.232;2022-11-20T00:00:37;15.38;;;7.00;;
62071;SDS011;48031;48.542;13.232;2022-11-20T00:04:38;15.02;;;7.10;;
62071;SDS011;48031;48.542;13.232;2022-11-20T00:08:40;16.67;;;7.82;;
62071;SDS011;48031;48.542;13.232;2022-11-20T00:12:43;17.50;;;7.68;;
62071;SDS011;48031;48.542;13.232;2022-11-20T00:16:45;9.63;;;5.53;;
62071;SDS011;48031;48.542;13.232;2022-11-20T00:20:46;11.73;;;5.60;;
62071;SDS011;48031;48.542;13.232;2022-11-20T00:24:48;8.80;;;4.60;;
62071;SDS011;48031;48.542;13.232;2022-11-20T00:28:51;7.63;;;4.43;;
62071;SDS011;48031;48.542;13.232;2022-11-20T00:32:56;12.18;;;6.57;;
62071;SDS011;48031;48.542;13.232;2022-11-20T00:36:58;10.65;;;5.68;;
62071;SDS011;48031;48.542;13.232;2022-11-20T00:41:01;14.05;;;7.05;;
62071;SDS011;48031;48.542;13.232;2022-11-20T00:45:06;12.45;;;5.82;;
62071;SDS011;48031;48.542;13.232;2022-11-20T00:49:08;12.88;;;6.43;;
62071;SDS011;48031;48.542;13.232;2022-11-20T00:53:10;11.52;;;5.53;;
62071;SDS011;48031;48.542;13.232;2022-11-20T00:57:11;11.18;;;6.05;;
62071;SDS011;48031;48.542;13.232;2022-11-20T01:05:17;13.88;;;7.28;;
62071;SDS011;48031;48.542;13.232;2022-11-20T01:09:18;14.13;;;6.55;;
62071;SDS011;48031;48.542;13.232;2022-11-20T01:13:21;14.05;;;7.57;;
62071;SDS011;48031;48.542;13.232;2022-11-20T01:17:41;15.82;;;7.38;;
62071;SDS011;48031;48.542;13.232;2022-11-20T01:21:43;14.43;;;7.05;;
62071;SDS011;48031;48.542;13.232;2022-11-20T01:25:46;11.43;;;6.22;;
62071;SDS011;48031;48.542;13.232;2022-11-20T01:29:48;9.15;;;4.82;;
62071;SDS011;48031;48.542;13.232;2022-11-20T01:33:51;12.82;;;6.15;;
62071;SDS011;48031;48.542;13.232;2022-11-20T01:37:54;12.43;;;6.32;;
62071;SDS011;48031;48.542;13.232;2022-11-20T01:41:56;9.32;;;4.30;;
62071;SDS011;48031;48.542;13.232;2022-11-20T01:46:17;7.47;;;4.15;;
62071;SDS011;48031;48.542;13.232;2022-11-20T01:50:22;10.57;;;5.90;;
62071;SDS011;48031;48.542;13.232;2022-11-20T01:54:29;7.70;;;4.82;;
62071;SDS011;48031;48.542;13.232;2022-11-20T01:58:42;9.88;;;5.28;;
62071;SDS011;48031;48.542;13.232;2022-11-20T02:02:53;11.38;;;4.47;;
62071;SDS011;48031;48.542;13.232;2022-11-20T02:07:00;9.07;;;4.97;;
62071;SDS011;48031;48.542;13.232;2022-11-20T02:11:04;6.95;;;4.15;;
62071;SDS011;48031;48.542;13.232;2022-11-20T02:15:06;8.45;;;4.63;;
62071;SDS011;48031;48.542;13.232;2022-11-20T02:19:09;9.85;;;4.90;;
62071;SDS011;48031;48.542;13.232;2022-11-20T02:28:02;13.07;;;6.30;;
62071;SDS011;48031;48.542;13.232;2022-11-20T02:32:04;6.90;;;4.50;;
62071;SDS011;48031;48.542;13.232;2022-11-20T02:36:07;11.68;;;5.97;;
62071;SDS011;48031;48.542;13.232;2022-11-20T02:40:13;11.53;;;5.97;;
62071;SDS011;48031;48.542;13.232;2022-11-20T02:44:15;7.32;;;4.00;;
62071;SDS011;48031;48.542;13.232;2022-11-20T02:48:16;6.25;;;3.90;;
62071;SDS011;48031;48.542;13.232;2022-11-20T02:52:18;10.90;;;5.13;;
62071;SDS011;48031;48.542;13.232;2022-11-20T02:56:20;7.05;;;3.92;;
62071;SDS011;48031;48.542;13.232;2022-11-20T03:00:22;7.35;;;4.18;;
62071;SDS011;48031;48.542;13.232;2022-11-20T03:04:23;7.45;;;4.50;;
62071;SDS011;48031;48.542;13.232;2022-11-20T03:08:25;7.85;;;4.47;;
62071;SDS011;48031;48.542;13.232;2022-11-20T03:12:27;10.82;;;5.57;;
62071;SDS011;48031;48.542;13.232;2022-11-20T03:16:30;11.48;;;6.10;;
62071;SDS011;48031;48.542;13.232;2022-11-20T03:20:33;10.93;;;5.70;;
62071;SDS011;48031;48.542;13.232;2022-11-20T03:24:35;11.10;;;5.53;;
62071;SDS011;48031;48.542;13.232;2022-11-20T03:28:37;11.60;;;5.60;;
62071;SDS011;48031;48.542;13.232;2022-11-20T03:32:39;15.15;;;6.38;;
62071;SDS011;48031;48.542;13.232;2022-11-20T03:36:41;10.30;;;5.18;;
62071;SDS011;48031;48.542;13.232;2022-11-20T03:40:43;8.55;;;3.92;;
62071;SDS011;48031;48.542;13.232;2022-11-20T03:44:45;5.80;;;3.17;;
62071;SDS011;48031;48.542;13.232;2022-11-20T03:48:47;5.45;;;3.20;;
62071;SDS011;48031;48.542;13.232;2022-11-20T03:52:52;6.47;;;3.80;;
62071;SDS011;48031;48.542;13.232;2022-11-20T03:56:54;6.20;;;3.67;;
62071;SDS011;48031;48.542;13.232;2022-11-20T04:00:56;7.45;;;3.70;;
62071;SDS011;48031;48.542;13.232;2022-11-20T04:04:57;4.85;;;3.30;;
62071;SDS011;48031;48.542;13.232;2022-11-20T04:08:59;6.25;;;2.90;;
62071;SDS011;48031;48.542;13.232;2022-11-20T04:13:01;4.32;;;2.88;;
62071;SDS011;48031;48.542;13.232;2022-11-20T04:17:03;6.32;;;3.20;;
62071;SDS011;48031;48.542;13.232;2022-11-20T04:21:05;6.13;;;3.67;;
62071;SDS011;48031;48.542;13.232;2022-11-20T04:25:07;7.22;;;3.97;;
62071;SDS011;48031;48.542;13.232;2022-11-20T04:29:10;7.43;;;4.65;;
62071;SDS011;48031;48.542;13.232;2022-11-20T04:33:13;5.78;;;3.97;;
62071;SDS011;48031;48.542;13.232;2022-11-20T04:37:14;8.07;;;4.65;;
62071;SDS011;48031;48.542;13.232;2022-11-20T04:41:17;8.57;;;5.07;;
62071;SDS011;48031;48.542;13.232;2022-11-20T04:45:20;7.25;;;4.45;;
62071;SDS011;48031;48.542;13.232;2022-11-20T04:49:24;6.45;;;3.95;;
62071;SDS011;48031;48.542;13.232;2022-11-20T04:53:26;8.80;;;4.70;;
62071;SDS011;48031;48.542;13.232;2022-11-20T04:57:28;5.50;;;3.38;;
62071;SDS011;48031;48.542;13.232;2022-11-20T05:01:29;6.47;;;3.83;;
62071;SDS011;48031;48.542;13.232;2022-11-20T05:05:33;6.05;;;3.38;;
62071;SDS011;48031;48.542;13.232;2022-11-20T05:09:35;5.75;;;3.67;;
62071;SDS011;48031;48.542;13.232;2022-11-20T05:13:37;6.25;;;3.85;;
62071;SDS011;48031;48.542;13.232;2022-11-20T05:17:40;6.10;;;3.47;;
62071;SDS011;48031;48.542;13.232;2022-11-20T05:21:41;4.25;;;2.63;;
62071;SDS011;48031;48.542;13.232;2022-11-20T05:25:43;6.35;;;3.90;;
62071;SDS011;48031;48.542;13.232;2022-11-20T05:29:45;8.43;;;3.83;;
62071;SDS011;48031;48.542;13.232;2022-11-20T05:33:46;7.88;;;4.70;;
62071;SDS011;48031;48.542;13.232;2022-11-20T05:37:48;9.25;;;5.03;;
62071;SDS011;48031;48.542;13.232;2022-11-20T05:41:50;9.88;;;5.72;;
62071;SDS011;48031;48.542;13.232;2022-11-20T05:46:13;12.07;;;5.78;;
62071;SDS011;48031;48.542;13.232;2022-11-20T05:50:16;10.13;;;5.38;;
62071;SDS011;48031;48.542;13.232;2022-11-20T05:54:17;10.73;;;5.97;;
62071;SDS011;48031;48.542;13.232;2022-11-20T05:58:19;7.57;;;4.13;;
62071;SDS011;48031;48.542;13.232;2022-11-20T06:02:21;13.15;;;6.72;;
62071;SDS011;48031;48.542;13.232;2022-11-20T06:06:22;15.65;;;8.15;;
62071;SDS011;48031;48.542;13.232;2022-11-20T06:10:24;8.95;;;5.32;;
62071;SDS011;48031;48.542;13.232;2022-11-20T06:14:26;8.85;;;4.55;;
62071;SDS011;48031;48.542;13.232;2022-11-20T06:18:28;5.60;;;3.40;;
62071;SDS011;48031;48.542;13.232;2022-11-20T06:22:31;11.38;;;6.13;;
62071;SDS011;48031;48.542;13.232;2022-11-20T06:26:33;8.45;;;4.78;;
62071;SDS011;48031;48.542;13.232;2022-11-20T06:30:35;11.40;;;6.15;;
62071;SDS011;48031;48.542;13.232;2022-11-20T06:34:37;8.18;;;5.15;;
62071;SDS011;48031;48.542;13.232;2022-11-20T06:38:38;7.88;;;4.70;;
62071;SDS011;48031;48.542;13.232;2022-11-20T06:42:41;9.93;;;5.75;;
62071;SDS011;48031;48.542;13.232;2022-11-20T06:46:42;10.85;;;5.60;;
62071;SDS011;48031;48.542;13.232;2022-11-20T06:50:44;7.32;;;4.05;;
62071;SDS011;48031;48.542;13.232;2022-11-20T06:54:46;5.22;;;3.28;;
62071;SDS011;48031;48.542;13.232;2022-11-20T06:58:47;8.20;;;4.00;;
62071;SDS011;48031;48.542;13.232;2022-11-20T07:02:49;6.70;;;4.18;;
62071;SDS011;48031;48.542;13.232;2022-11-20T07:06:51;6.53;;;4.03;;
62071;SDS011;48031;48.542;13.232;2022-11-20T07:10:53;6.13;;;4.07;;
62071;SDS011;48031;48.542;13.232;2022-11-20T07:14:59;6.32;;;3.72;;
62071;SDS011;48031;48.542;13.232;2022-11-20T07:19:01;7.28;;;4.35;;
62071;SDS011;48031;48.542;13.232;2022-11-20T07:23:03;7.55;;;3.83;;
62071;SDS011;48031;48.542;13.232;2022-11-20T07:27:04;4.45;;;3.15;;
62071;SDS011;48031;48.542;13.232;2022-11-20T07:31:06;4.47;;;2.97;;
62071;SDS011;48031;48.542;13.232;2022-11-20T07:35:08;4.72;;;3.30;;
62071;SDS011;48031;48.542;13.232;2022-11-20T07:39:10;9.43;;;5.22;;
62071;SDS011;48031;48.542;13.232;2022-11-20T07:43:12;16.25;;;7.82;;
62071;SDS011;48031;48.542;13.232;2022-11-20T07:47:13;14.50;;;7.28;;
62071;SDS011;48031;48.542;13.232;2022-11-20T07:51:18;19.20;;;9.13;;
62071;SDS011;48031;48.542;13.232;2022-11-20T07:55:22;18.58;;;9.18;;
62071;SDS011;48031;48.542;13.232;2022-11-20T07:59:24;19.73;;;9.18;;
62071;SDS011;48031;48.542;13.232;2022-11-20T08:03:28;22.00;;;9.65;;
62071;SDS011;48031;48.542;13.232;2022-11-20T08:07:29;19.75;;;8.80;;
62071;SDS011;48031;48.542;13.232;2022-11-20T08:11:36;17.45;;;8.10;;
62071;SDS011;48031;48.542;13.232;2022-11-20T08:15:56;14.70;;;6.97;;
62071;SDS011;48031;48.542;13.232;2022-11-20T08:19:58;14.77;;;7.15;;
62071;SDS011;48031;48.542;13.232;2022-11-20T08:23:59;13.23;;;6.70;;
62071;SDS011;48031;48.542;13.232;2022-11-20T08:28:03;18.17;;;9.05;;
62071;SDS011;48031;48.542;13.232;2022-11-20T08:32:20;21.75;;;11.27;;
62071;SDS011;48031;48.542;13.232;2022-11-20T08:36:22;16.33;;;9.00;;
62071;SDS011;48031;48.542;13.232;2022-11-20T08:40:25;17.77;;;9.07;;
62071;SDS011;48031;48.542;13.232;2022-11-20T08:44:26;16.67;;;8.23;;
62071;SDS011;48031;48.542;13.232;2022-11-20T08:48:28;10.02;;;5.38;;
62071;SDS011;48031;48.542;13.232;2022-11-20T08:52:30;11.85;;;6.32;;
62071;SDS011;48031;48.542;13.232;2022-11-20T08:56:35;7.50;;;4.43;;
62071;SDS011;48031;48.542;13.232;2022-11-20T09:00:36;11.68;;;6.40;;
62071;SDS011;48031;48.542;13.232;2022-11-20T09:04:38;10.85;;;5.72;;
62071;SDS011;48031;48.542;13.232;2022-11-20T09:08:40;9.18;;;5.07;;
62071;SDS011;48031;48.542;13.232;2022-11-20T09:12:42;8.50;;;5.05;;
62071;SDS011;48031;48.542;13.232;2022-11-20T09:16:44;7.45;;;4.43;;
62071;SDS011;48031;48.542;13.232;2022-11-20T09:20:47;9.05;;;6.13;;
62071;SDS011;48031;48.542;13.232;2022-11-20T09:24:50;10.15;;;5.85;;
62071;SDS011;48031;48.542;13.232;2022-11-20T09:28:51;10.63;;;6.22;;
62071;SDS011;48031;48.542;13.232;2022-11-20T09:32:58;10.48;;;6.43;;
62071;SDS011;48031;48.542;13.232;2022-11-20T09:37:01;8.27;;;5.50;;
62071;SDS011;48031;48.542;13.232;2022-11-20T09:41:13;8.90;;;5.43;;
62071;SDS011;48031;48.542;13.232;2022-11-20T09:45:44;10.55;;;4.85;;
62071;SDS011;48031;48.542;13.232;2022-11-20T09:50:52;7.38;;;4.35;;
62071;SDS011;48031;48.542;13.232;2022-11-20T09:54:33;6.65;;;4.40;;
62071;SDS011;48031;48.542;13.232;2022-11-20T09:58:40;5.07;;;3.67;;
62071;SDS011;48031;48.542;13.232;2022-11-20T10:02:48;5.60;;;3.72;;
62071;SDS011;48031;48.542;13.232;2022-11-20T10:07:05;4.80;;;3.65;;
62071;SDS011;48031;48.542;13.232;2022-11-20T10:28:53;4.50;;;3.35;;
62071;SDS011;48031;48.542;13.232;2022-11-20T10:33:22;4.65;;;3.25;;
62071;SDS011;48031;48.542;13.232;2022-11-20T10:37:35;5.03;;;3.20;;
62071;SDS011;48031;48.542;13.232;2022-11-20T10:41:42;5.15;;;3.38;;
62071;SDS011;48031;48.542;13.232;2022-11-20T10:50:02;4.20;;;3.20;;
62071;SDS011;48031;48.542;13.232;2022-11-20T10:54:18;5.82;;;3.55;;
62071;SDS011;48031;48.542;13.232;2022-11-20T10:58:34;5.45;;;3.53;;
62071;SDS011;48031;48.542;13.232;2022-11-20T11:06:52;5.00;;;3.50;;
62071;SDS011;48031;48.542;13.232;2022-11-20T11:11:00;4.35;;;3.47;;
62071;SDS011;48031;48.542;13.232;2022-11-20T11:15:26;4.60;;;3.60;;
62071;SDS011;48031;48.542;13.232;2022-11-20T11:19:30;6.25;;;3.40;;
62071;SDS011;48031;48.542;13.232;2022-11-20T11:23:41;3.42;;;2.90;;
62071;SDS011;48031;48.542;13.232;2022-11-20T11:27:47;3.80;;;2.83;;
62071;SDS011;48031;48.542;13.232;2022-11-20T11:31:50;3.80;;;3.00;;
62071;SDS011;48031;48.542;13.232;2022-11-20T11:39:54;4.35;;;3.53;;
62071;SDS011;48031;48.542;13.232;2022-11-20T11:53:09;3.80;;;2.70;;
62071;SDS011;48031;48.542;13.232;2022-11-20T11:57:29;3.95;;;3.00;;
62071;SDS011;48031;48.542;13.232;2022-11-20T12:01:43;3.25;;;2.50;;
62071;SDS011;48031;48.542;13.232;2022-11-20T12:05:53;3.13;;;2.40;;
62071;SDS011;48031;48.542;13.232;2022-11-20T12:09:59;3.53;;;2.80;;
62071;SDS011;48031;48.542;13.232;2022-11-20T12:18:15;3.47;;;2.50;;
62071;SDS011;48031;48.542;13.232;2022-11-20T12:22:46;3.20;;;2.42;;
62071;SDS011;48031;48.542;13.232;2022-11-20T12:31:42;3.10;;;2.70;;
62071;SDS011;48031;48.542;13.232;2022-11-20T12:44:55;2.95;;;2.40;;
62071;SDS011;48031;48.542;13.232;2022-11-20T12:49:22;4.18;;;2.88;;
62071;SDS011;48031;48.542;13.232;2022-11-20T12:57:40;2.97;;;2.63;;
62071;SDS011;48031;48.542;13.232;2022-11-20T13:01:51;3.58;;;2.50;;
62071;SDS011;48031;48.542;13.232;2022-11-20T13:18:46;4.40;;;2.83;;
62071;SDS011;48031;48.542;13.232;2022-11-20T13:22:51;3.17;;;2.40;;
62071;SDS011;48031;48.542;13.232;2022-11-20T13:26:59;3.20;;;2.50;;
62071;SDS011;48031;48.542;13.232;2022-11-20T13:31:04;3.92;;;2.78;;
62071;SDS011;48031;48.542;13.232;2022-11-20T13:35:08;2.85;;;2.30;;
62071;SDS011;48031;48.542;13.232;2022-11-20T13:39:10;2.50;;;2.30;;
62071;SDS011;48031;48.542;13.232;2022-11-20T13:43:22;3.80;;;2.38;;
62071;SDS011;48031;48.542;13.232;2022-11-20T13:47:28;3.42;;;2.25;;
62071;SDS011;48031;48.542;13.232;2022-11-20T13:55:49;4.20;;;2.92;;
62071;SDS011;48031;48.542;13.232;2022-11-20T14:00:15;3.80;;;2.88;;
62071;SDS011;48031;48.542;13.232;2022-11-20T14:04:20;3.65;;;2.10;;
62071;SDS011;48031;48.542;13.232;2022-11-20T14:08:37;2.33;;;1.90;;
62071;SDS011;48031;48.542;13.232;2022-11-20T14:12:44;2.28;;;2.08;;
62071;SDS011;48031;48.542;13.232;2022-11-20T14:16:46;2.65;;;2.30;;
62071;SDS011;48031;48.542;13.232;2022-11-20T14:20:48;3.45;;;2.47;;
62071;SDS011;48031;48.542;13.232;2022-11-20T14:29:14;2.40;;;2.20;;
62071;SDS011;48031;48.542;13.232;2022-11-20T14:33:17;2.33;;;2.10;;
62071;SDS011;48031;48.542;13.232;2022-11-20T14:37:24;2.78;;;2.20;;
62071;SDS011;48031;48.542;13.232;2022-11-20T14:41:28;3.30;;;2.20;;
62071;SDS011;48031;48.542;13.232;2022-11-20T14:45:32;2.75;;;2.33;;
62071;SDS011;48031;48.542;13.232;2022-11-20T14:49:33;2.50;;;2.13;;
62071;SDS011;48031;48.542;13.232;2022-11-20T14:53:37;2.88;;;2.20;;
62071;SDS011;48031;48.542;13.232;2022-11-20T14:57:38;2.83;;;2.17;;
62071;SDS011;48031;48.542;13.232;2022-11-20T15:01:40;2.47;;;2.25;;
62071;SDS011;48031;48.542;13.232;2022-11-20T15:05:59;5.13;;;2.90;;
62071;SDS011;48031;48.542;13.232;2022-11-20T15:14:08;2.03;;;1.83;;
62071;SDS011;48031;48.542;13.232;2022-11-20T15:18:12;2.47;;;1.95;;
62071;SDS011;48031;48.542;13.232;2022-11-20T15:22:14;2.60;;;2.00;;
62071;SDS011;48031;48.542;13.232;2022-11-20T15:26:20;2.63;;;2.20;;
62071;SDS011;48031;48.542;13.232;2022-11-20T15:30:26;2.40;;;2.20;;
62071;SDS011;48031;48.542;13.232;2022-11-20T15:34:27;2.80;;;2.20;;
62071;SDS011;48031;48.542;13.232;2022-11-20T15:38:29;2.55;;;2.30;;
62071;SDS011;48031;48.542;13.232;2022-11-20T15:42:31;3.15;;;2.15;;
62071;SDS011;48031;48.542;13.232;2022-11-20T15:46:35;2.45;;;2.10;;
62071;SDS011;48031;48.542;13.232;2022-11-20T15:54:52;2.80;;;2.28;;
62071;SDS011;48031;48.542;13.232;2022-11-20T15:58:53;3.17;;;2.30;;
62071;SDS011;48031;48.542;13.232;2022-11-20T16:02:55;4.00;;;2.70;;
62071;SDS011;48031;48.542;13.232;2022-11-20T16:06:57;3.35;;;2.70;;
62071;SDS011;48031;48.542;13.232;2022-11-20T16:10:59;4.03;;;2.60;;
62071;SDS011;48031;48.542;13.232;2022-11-20T16:15:01;3.22;;;2.40;;
62071;SDS011;48031;48.542;13.232;2022-11-20T16:19:21;4.72;;;2.60;;
62071;SDS011;48031;48.542;13.232;2022-11-20T16:23:23;4.88;;;2.60;;
62071;SDS011;48031;48.542;13.232;2022-11-20T16:27:25;3.20;;;2.40;;
62071;SDS011;48031;48.542;13.232;2022-11-20T16:31:26;2.83;;;2.50;;
62071;SDS011;48031;48.542;13.232;2022-11-20T16:35:29;2.45;;;2.10;;
62071;SDS011;48031;48.542;13.232;2022-11-20T16:39:32;2.40;;;2.10;;
62071;SDS011;48031;48.542;13.232;2022-11-20T16:43:33;3.92;;;2.60;;
62071;SDS011;48031;48.542;13.232;2022-11-20T16:47:35;3.20;;;2.42;;
62071;SDS011;48031;48.542;13.232;2022-11-20T16:51:37;3.78;;;2.53;;
62071;SDS011;48031;48.542;13.232;2022-11-20T16:55:39;3.17;;;2.30;;
62071;SDS011;48031;48.542;13.232;2022-11-20T16:59:40;2.63;;;2.33;;
62071;SDS011;48031;48.542;13.232;2022-11-20T17:03:43;3.13;;;2.38;;
62071;SDS011;48031;48.542;13.232;2022-11-20T17:07:46;3.58;;;2.50;;
62071;SDS011;48031;48.542;13.232;2022-11-20T17:11:48;2.80;;;2.50;;
62071;SDS011;48031;48.542;13.232;2022-11-20T17:15:50;2.97;;;2.30;;
62071;SDS011;48031;48.542;13.232;2022-11-20T17:19:52;4.32;;;2.50;;
62071;SDS011;48031;48.542;13.232;2022-11-20T17:23:54;3.25;;;2.40;;
62071;SDS011;48031;48.542;13.232;2022-11-20T17:27:55;2.72;;;2.38;;
62071;SDS011;48031;48.542;13.232;2022-11-20T17:31:57;2.95;;;2.20;;
62071;SDS011;48031;48.542;13.232;2022-11-20T17:35:59;2.97;;;2.38;;
62071;SDS011;48031;48.542;13.232;2022-11-20T17:40:00;3.20;;;2.50;;
62071;SDS011;48031;48.542;13.232;2022-11-20T17:44:02;3.78;;;2.50;;
62071;SDS011;48031;48.542;13.232;2022-11-20T17:48:04;4.03;;;2.95;;
62071;SDS011;48031;48.542;13.232;2022-11-20T17:52:06;3.88;;;2.70;;
62071;SDS011;48031;48.542;13.232;2022-11-20T17:56:08;3.55;;;2.80;;
62071;SDS011;48031;48.542;13.232;2022-11-20T18:00:28;5.57;;;3.45;;
62071;SDS011;48031;48.542;13.232;2022-11-20T18:04:31;7.38;;;3.65;;
62071;SDS011;48031;48.542;13.232;2022-11-20T18:08:33;17.27;;;6.45;;
62071;SDS011;48031;48.542;13.232;2022-11-20T18:12:35;9.80;;;4.25;;
62071;SDS011;48031;48.542;13.232;2022-11-20T18:16:38;14.32;;;6.13;;
62071;SDS011;48031;48.542;13.232;2022-11-20T18:20:44;3.92;;;3.10;;
62071;SDS011;48031;48.542;13.232;2022-11-20T18:24:46;3.70;;;2.78;;
62071;SDS011;48031;48.542;13.232;2022-11-20T18:28:48;3.22;;;2.50;;
62071;SDS011;48031;48.542;13.232;2022-11-20T18:32:50;4.32;;;2.90;;
62071;SDS011;48031;48.542;13.232;2022-11-20T18:36:52;4.85;;;2.72;;
62071;SDS011;48031;48.542;13.232;2022-11-20T18:40:53;4.47;;;2.35;;
62071;SDS011;48031;48.542;13.232;2022-11-20T18:44:55;4.85;;;2.95;;
62071;SDS011;48031;48.542;13.232;2022-11-20T18:48:57;5.03;;;3.25;;
62071;SDS011;48031;48.542;13.232;2022-11-20T18:52:58;4.03;;;2.97;;
62071;SDS011;48031;48.542;13.232;2022-11-20T18:57:00;3.35;;;2.90;;
62071;SDS011;48031;48.542;13.232;2022-11-20T19:01:05;5.30;;;3.40;;
62071;SDS011;48031;48.542;13.232;2022-11-20T19:05:08;3.83;;;3.20;;
62071;SDS011;48031;48.542;13.232;2022-11-20T19:09:14;5.20;;;3.03;;
62071;SDS011;48031;48.542;13.232;2022-11-20T19:13:16;4.25;;;3.13;;
62071;SDS011;48031;48.542;13.232;2022-11-20T19:17:18;4.43;;;3.10;;
62071;SDS011;48031;48.542;13.232;2022-11-20T19:21:21;4.05;;;3.10;;
62071;SDS011;48031;48.542;13.232;2022-11-20T19:25:24;2.50;;;2.30;;
62071;SDS011;48031;48.542;13.232;2022-11-20T19:29:26;2.50;;;2.05;;
62071;SDS011;48031;48.542;13.232;2022-11-20T19:33:29;2.35;;;2.00;;
62071;SDS011;48031;48.542;13.232;2022-11-20T19:37:33;2.47;;;2.10;;
62071;SDS011;48031;48.542;13.232;2022-11-20T19:41:36;2.30;;;2.10;;
62071;SDS011;48031;48.542;13.232;2022-11-20T19:45:39;4.57;;;2.50;;
62071;SDS011;48031;48.542;13.232;2022-11-20T19:49:40;3.10;;;2.50;;
62071;SDS011;48031;48.542;13.232;2022-11-20T19:53:42;2.00;;;1.80;;
62071;SDS011;48031;48.542;13.232;2022-11-20T19:57:44;1.73;;;1.63;;
62071;SDS011;48031;48.542;13.232;2022-11-20T20:01:46;2.10;;;1.80;;
62071;SDS011;48031;48.542;13.232;2022-11-20T20:05:48;2.33;;;1.90;;
62071;SDS011;48031;48.542;13.232;2022-11-20T20:09:49;2.00;;;1.80;;
62071;SDS011;48031;48.542;13.232;2022-11-20T20:13:51;3.83;;;2.53;;
62071;SDS011;48031;48.542;13.232;2022-11-20T20:17:53;3.72;;;2.72;;
62071;SDS011;48031;48.542;13.232;2022-11-20T20:21:55;2.97;;;2.00;;
62071;SDS011;48031;48.542;13.232;2022-11-20T20:25:57;2.20;;;2.00;;
62071;SDS011;48031;48.542;13.232;2022-11-20T20:30:00;1.92;;;1.73;;
62071;SDS011;48031;48.542;13.232;2022-11-20T20:34:02;3.15;;;2.25;;
62071;SDS011;48031;48.542;13.232;2022-11-20T20:38:05;3.15;;;2.28;;
62071;SDS011;48031;48.542;13.232;2022-11-20T20:42:07;2.20;;;2.00;;
62071;SDS011;48031;48.542;13.232;2022-11-20T20:46:09;2.17;;;1.95;;
62071;SDS011;48031;48.542;13.232;2022-11-20T20:50:11;2.08;;;1.88;;
62071;SDS011;48031;48.542;13.232;2022-11-20T20:54:13;2.15;;;1.85;;
62071;SDS011;48031;48.542;13.232;2022-11-20T20:58:15;2.58;;;2.13;;
62071;SDS011;48031;48.542;13.232;2022-11-20T21:02:18;4.43;;;3.03;;
62071;SDS011;48031;48.542;13.232;2022-11-20T21:06:20;3.42;;;2.30;;
62071;SDS011;48031;48.542;13.232;2022-11-20T21:10:22;4.85;;;2.67;;
62071;SDS011;48031;48.542;13.232;2022-11-20T21:14:24;4.22;;;2.97;;
62071;SDS011;48031;48.542;13.232;2022-11-20T21:18:26;3.35;;;2.65;;
62071;SDS011;48031;48.542;13.232;2022-11-20T21:22:29;3.45;;;2.30;;
62071;SDS011;48031;48.542;13.232;2022-11-20T21:26:36;2.45;;;2.25;;
62071;SDS011;48031;48.542;13.232;2022-11-20T21:30:38;1.90;;;1.80;;
62071;SDS011;48031;48.542;13.232;2022-11-20T21:34:40;1.52;;;1.42;;
62071;SDS011;48031;48.542;13.232;2022-11-20T21:38:42;1.52;;;1.40;;
62071;SDS011;48031;48.542;13.232;2022-11-20T21:42:44;1.70;;;1.50;;
62071;SDS011;48031;48.542;13.232;2022-11-20T21:46:46;1.70;;;1.60;;
62071;SDS011;48031;48.542;13.232;2022-11-20T21:50:47;2.80;;;1.90;;
62071;SDS011;48031;48.542;13.232;2022-11-20T21:54:49;3.88;;;2.28;;
62071;SDS011;48031;48.542;13.232;2022-11-20T21:58:51;1.77;;;1.65;;
62071;SDS011;48031;48.542;13.232;2022-11-20T22:02:54;4.20;;;2.20;;
62071;SDS011;48031;48.542;13.232;2022-11-20T22:06:55;1.90;;;1.70;;
62071;SDS011;48031;48.542;13.232;2022-11-20T22:11:01;2.42;;;2.00;;
62071;SDS011;48031;48.542;13.232;2022-11-20T22:15:05;2.10;;;1.90;;
62071;SDS011;48031;48.542;13.232;2022-11-20T22:19:07;2.58;;;2.03;;
62071;SDS011;48031;48.542;13.232;2022-11-20T22:23:09;2.95;;;2.47;;
62071;SDS011;48031;48.542;13.232;2022-11-20T22:27:10;2.38;;;2.10;;
62071;SDS011;48031;48.542;13.232;2022-11-20T22:31:12;2.60;;;2.40;;
62071;SDS011;48031;48.542;13.232;2022-11-20T22:35:14;1.77;;;1.67;;
62071;SDS011;48031;48.542;13.232;2022-11-20T22:39:15;2.72;;;2.20;;
62071;SDS011;48031;48.542;13.232;2022-11-20T22:43:18;2.38;;;2.17;;
62071;SDS011;48031;48.542;13.232;2022-11-20T22:47:19;2.50;;;2.15;;
62071;SDS011;48031;48.542;13.232;2022-11-20T22:51:22;2.70;;;2.35;;
62071;SDS011;48031;48.542;13.232;2022-11-20T22:55:34;2.28;;;2.08;;
62071;SDS011;48031;48.542;13.232;2022-11-20T22:59:36;2.60;;;2.30;;
62071;SDS011;48031;48.542;13.232;2022-11-20T23:03:38;2.45;;;2.00;;
62071;SDS011;48031;48.542;13.232;2022-11-20T23:07:42;3.60;;;2.35;;
62071;SDS011;48031;48.542;13.232;2022-11-20T23:11:44;2.00;;;1.70;;
62071;SDS011;48031;48.542;13.232;2022-11-20T23:15:46;4.07;;;2.00;;
62071;SDS011;48031;48.542;13.232;2022-11-20T23:19:48;2.28;;;1.90;;
62071;SDS011;48031;48.542;13.232;2022-11-20T23:23:51;2.67;;;2.20;;
62071;SDS011;48031;48.542;13.232;2022-11-20T23:27:54;2.95;;;2.30;;
62071;SDS011;48031;48.542;13.232;2022-11-20T23:31:55;3.67;;;2.78;;
62071;SDS011;48031;48.542;13.232;2022-11-20T23:35:57;3.72;;;2.95;;
62071;SDS011;48031;48.542;13.232;2022-11-20T23:39:59;3.90;;;2.63;;
62071;SDS011;48031;48.542;13.232;2022-11-20T23:44:01;4.57;;;2.63;;
62071;SDS011;48031;48.542;13.232;2022-11-20T23:48:03;4.13;;;2.53;;
62071;SDS011;48031;48.542;13.232;2022-11-20T23:52:05;3.38;;;2.70;;
62071;SDS011;48031;48.542;13.232;2022-11-20T23:56:07;4.65;;;2.60;;
